Flight Track Log - Related Links

Times and Time Zones

All times are in EST time to prevent confusion due to time zone crossing. See the N214GF flight status page for this flight to view local times or setup timezone preferences in your user account.

Time Position Orientation Groundspeed Altitude Reporting Facility
EST Latitude Longitude Course Direction KTS MPH feet Rate Location/Type
Sun 01:41:23 PM 40.1756 -88.3089 332° Northwest 147 169 4,900  Level Chicago Center
Sun 01:42:26 PM 40.2083 -88.3297 334° Northwest 147 169 5,600 768 Climbing Chicago Center
Sun 01:43:00 PM 40.3057 -88.2307 North  Level Estimated
Sun 01:43:28 PM 40.2550 -88.3603 333° Northwest 154 177 6,500  Level Chicago Center
Sun 01:44:00 PM 40.3502 -88.2229 North  Level Estimated
Sun 01:44:30 PM 40.2919 -88.3842 334° Northwest 151 174 7,300  Level Chicago Center
Sun 01:45:00 PM 40.3947 -88.2150 North  Level Estimated
Sun 01:45:32 PM 40.3297 -88.4097 333° Northwest 152 175 8,100  Level Chicago Center
Sun 01:46:34 PM 40.3661 -88.4317 335° Northwest 147 169 8,800 726 Climbing Chicago Center
Sun 01:47:36 PM 40.4011 -88.4547 333° Northwest 143 165 9,600 726 Climbing Chicago Center
Sun 01:48:38 PM 40.4350 -88.4781 332° Northwest 139 160 10,300 677 Climbing Chicago Center
Sun 01:49:40 PM 40.4769 -88.5058 333° Northwest 140 161 11,000 339 Climbing Chicago Center
Sun 01:50:42 PM 40.5153 -88.5311 333° Northwest 150 173 11,000  Level Chicago Center
Sun 01:51:44 PM 40.5556 -88.5567 334° Northwest 158 182 11,000  Level Chicago Center
Sun 01:52:46 PM 40.6006 -88.5689 348° North 166 191 11,000  Level Chicago Center
Sun 01:53:49 PM 40.6497 -88.5689 360° North 175 201 11,000  Level Chicago Center
Sun 01:54:51 PM 40.7075 -88.5722 357° North 174 200 11,000  Level Chicago Center
Sun 01:55:53 PM 40.7556 -88.5733 359° North 174 200 11,000  Level Chicago Center
Sun 01:56:55 PM 40.8033 -88.5764 357° North 173 199 11,000  Level Chicago Center
Sun 01:57:57 PM 40.8517 -88.5781 359° North 174 200 11,000 -145 Level Chicago Center
Sun 01:58:59 PM 40.9011 -88.5808 358° North 176 203 10,700 -435 Descending Chicago Center
Sun 02:00:01 PM 40.9553 -88.5825 359° North 188 216 10,100 -339 Descending Chicago Center
Sun 02:01:03 PM 41.0181 -88.5861 358° North 190 219 10,000 -48 Descending Chicago Center
Sun 02:02:05 PM 41.0672 -88.5883 358° North 182 209 10,000  Level Chicago Center
Sun 02:03:07 PM 41.1147 -88.5906 358° North 175 201 10,000 -192 Level Chicago Center
Sun 02:04:10 PM 41.1631 -88.5928 358° North 173 199 9,600 -432 Descending Chicago Center
Sun 02:05:12 PM 41.2144 -88.5950 358° North 181 208 9,100 -532 Descending Chicago Center
Sun 02:06:14 PM 41.2781 -88.5989 357° North 189 217 8,500 -532 Descending Chicago Center
Sun 02:07:16 PM 41.3294 -88.6006 359° North 187 215 8,000 -435 Descending Chicago Center
Sun 02:08:18 PM 41.3814 -88.6033 358° North 187 215 7,600 -435 Descending Chicago Center
Sun 02:09:20 PM 41.4342 -88.6064 358° North 189 217 7,100 -387 Descending Chicago Center
Sun 02:10:22 PM 41.4858 -88.6083 358° North 187 215 6,800 -339 Descending Chicago Center
Sun 02:11:24 PM 41.5389 -88.6108 358° North 189 217 6,400 -387 Descending Chicago Center
Sun 02:12:26 PM 41.6003 -88.5994 North 192 221 6,000 -339 Descending Chicago Center
Sun 02:13:28 PM 41.6481 -88.5797 17° North 184 212 5,700 -336 Descending Chicago Center
Sun 02:14:31 PM 41.6975 -88.5603 16° North 184 212 5,300 -336 Descending Chicago Center
Sun 02:15:33 PM 41.7456 -88.5414 16° North 182 209 5,000 -242 Descending Chicago Center
Sun 02:16:35 PM 41.7919 -88.5233 16° North 176 203 4,800 -339 Descending Chicago Center
Sun 02:17:37 PM 41.8386 -88.5069 15° North 175 201 4,300 -387 Descending Chicago Center
Sun 02:18:39 PM 41.8961 -88.4861 15° North 177 204 4,000 -145 Descending Chicago Center
Sun 02:19:41 PM 41.9419 -88.4917 355° North 168 193 4,000  Level Chicago Center
Sun 02:20:43 PM 41.9886 -88.4944 357° North 167 192 4,000  Level Chicago Center
Sun 02:21:45 PM 42.0339 -88.4967 358° North 165 190 4,000  Level Chicago Center
Sun 02:22:47 PM 42.0800 -88.4994 357° North 165 190 4,000  Level Chicago Center
Sun 02:23:49 PM 42.1056 -88.4533 53° Northeast 166 191 4,000  Level Chicago Center
Sun 02:24:51 PM 42.1286 -88.3903 64° Northeast 158 182 4,000  Level Chicago Center
Sun 02:25:54 PM 42.1478 -88.3389 63° Northeast 156 180 4,000  Level Chicago Center
Sun 02:26:56 PM 42.1658 -88.2869 65° Northeast 154 177 4,000 -145 Level Chicago Center
Sun 02:27:58 PM 42.1844 -88.2344 64° Northeast 155 178 3,700 -387 Descending Chicago Center
Sun 02:29:00 PM 42.2031 -88.1786 66° East 158 182 3,200 -532 Descending Chicago Center
Sun 02:30:02 PM 42.2258 -88.1125 65° Northeast 161 185 2,600 -387 Descending Chicago Center
Sun 02:31:04 PM 42.2381 -88.0600 73° East 148 170 2,400 -97 Descending Chicago Center
Sun 02:32:06 PM 42.2283 -88.0047 103° East 151 174 2,400  Level Chicago Center
Sun 02:33:08 PM 42.2106 -87.9614 119° Southeast 141 162 2,400 -97 Level Chicago Center
Sun 02:34:10 PM 42.1694 -87.9517 170° South 146 168 2,200 -194 Descending Chicago Center

Login

Don't have an account? Register now (free) for customized features, flight alerts, and more!